Cortez, Florida
Current Conditions -  °F | °C
As of 6:53 PM on Saturday 22 Nov 2014 (Local Time) from KSRQ Reporting Station
Overcast Overcast  
Wind Chill: 73°   Ceiling: 3700
Heat Index: 73°   Visibility: 10mi
Dew Point: 66°   Wind: 13mph
Humidity: 79%   Direction: 90°E
Pressure: 30.05"   Gusts: NA
Location:  27.47°N, 82.67°W
Report Text: KSRQ 222353Z 09011KT 10SM FEW029 BKN037 OVC047 23/19 A3005 RMK AO2 SLP176 T02280189 10267 20228 50002
Loading
Personal Weather Stations






























Interactive Weather Map New forecast layout! Learn more

10-Day Weather Forecast

Advertisements
Track Severe Weather on mobile